ADDS METAR Data INFO
IDs: Format: Raw Decoded Include TAF

Data at: 0730 UTC 18 Oct 2017

KSIK 180715Z AUTO 00000KT 10SM CLR 07/06 A3023 RMK AO2
KSIK 180655Z AUTO 00000KT 10SM CLR 06/05 A3023 RMK AO2
KSIK 180635Z AUTO 00000KT 10SM CLR 07/05 A3023 RMK AO2
KSIK 180615Z AUTO 00000KT 10SM CLR 07/06 A3023 RMK AO2
KSIK 180555Z AUTO 00000KT 10SM CLR 07/06 A3023 RMK AO2
KSIK 180535Z AUTO 00000KT 10SM CLR 08/06 A3023 RMK AO2
KSIK 180515Z AUTO 00000KT 10SM CLR 08/06 A3024 RMK AO2
KSIK 180455Z AUTO 00000KT 10SM CLR 09/07 A3024 RMK AO2
KSIK 180435Z AUTO 00000KT 10SM CLR 09/07 A3024 RMK AO2
KSIK 180415Z AUTO 00000KT 10SM CLR 09/07 A3024 RMK AO2
KSIK 180355Z AUTO 00000KT 10SM CLR 09/07 A3025 RMK AO2
KSIK 180335Z AUTO 00000KT 10SM CLR 09/07 A3025 RMK AO2
KSIK 180315Z AUTO 00000KT 10SM CLR 10/07 A3025 RMK AO2
KSIK 180255Z AUTO 00000KT 10SM CLR 08/07 A3025 RMK AO2
KSIK 180235Z AUTO 00000KT 10SM CLR 08/07 A3025 RMK AO2
KSIK 180215Z AUTO 00000KT 10SM CLR 10/07 A3024 RMK AO2
KSIK 180155Z AUTO 00000KT 10SM CLR 10/07 A3024 RMK AO2
KSIK 180135Z AUTO 00000KT 10SM CLR 11/07 A3024 RMK AO2
KSIK 180115Z AUTO 00000KT 10SM CLR 11/07 A3024 RMK AO2
KSIK 180055Z AUTO 00000KT 10SM CLR 11/07 A3024 RMK AO2
KSIK 180035Z AUTO 00000KT 10SM CLR 11/08 A3024 RMK AO2
KSIK 180015Z AUTO 00000KT 10SM CLR 12/08 A3023 RMK AO2
KSIK 172355Z AUTO 00000KT 10SM CLR 15/06 A3023 RMK AO2
KSIK 172335Z AUTO 00000KT 10SM CLR 16/06 A3023 RMK AO2
KSIK 172315Z AUTO 00000KT 10SM CLR 18/05 A3023 RMK AO2
KSIK 172255Z AUTO 00000KT 10SM CLR 19/05 A3023 RMK AO2
KSIK 172235Z AUTO 00000KT 10SM CLR 20/05 A3023 RMK AO2
KSIK 172215Z AUTO 00000KT 10SM CLR 20/05 A3024 RMK AO2
KSIK 172155Z AUTO 00000KT 10SM CLR 20/05 A3024 RMK AO2
KSIK 172135Z AUTO 00000KT 10SM CLR 20/05 A3024 RMK AO2
KSIK 172115Z AUTO 00000KT 10SM CLR 20/06 A3024 RMK AO2
KSIK 172055Z AUTO 00000KT 10SM CLR 20/06 A3025 RMK AO2
KSIK 172035Z AUTO 24004KT 10SM CLR 20/06 A3026 RMK AO2
KSIK 172015Z AUTO 00000KT 10SM CLR 19/06 A3026 RMK AO2
KSIK 171955Z AUTO 00000KT 10SM CLR 20/06 A3026 RMK AO2
KSIK 171935Z AUTO 19003KT 10SM CLR 21/06 A3027 RMK AO2
KSIK 171915Z AUTO 15004KT 10SM CLR 20/04 A3027 RMK AO2
KSIK 171855Z AUTO 00000KT 10SM CLR 20/05 A3028 RMK AO2
KSIK 171835Z AUTO 00000KT 10SM CLR 20/04 A3029 RMK AO2
KSIK 171815Z AUTO 13005KT 10SM CLR 21/05 A3031 RMK AO2
KSIK 171755Z AUTO 15003KT 10SM CLR 19/05 A3032 RMK AO2
KSIK 171735Z AUTO 14007KT 10SM CLR 18/06 A3033 RMK AO2
KSIK 171715Z AUTO 18004KT 10SM CLR 18/06 A3035 RMK AO2
KSIK 171655Z AUTO 15004KT 10SM CLR 19/06 A3036 RMK AO2
KSIK 171635Z AUTO 14007KT 10SM CLR 18/06 A3036 RMK AO2
KSIK 171615Z AUTO 14005KT 10SM CLR 17/06 A3037 RMK AO2
KSIK 171555Z AUTO 14006KT 10SM CLR 17/06 A3038 RMK AO2
KSIK 171535Z AUTO 15003KT 10SM CLR 16/07 A3038 RMK AO2
KSIK 171515Z AUTO 16003KT 10SM CLR 16/07 A3039 RMK AO2
KSIK 171455Z AUTO 00000KT 10SM CLR 14/07 A3039 RMK AO2
KSIK 171435Z AUTO 00000KT 10SM CLR 13/08 A3039 RMK AO2
KSIK 171415Z AUTO 00000KT 10SM CLR 11/08 A3039 RMK AO2
KSIK 171355Z AUTO 00000KT 10SM CLR 10/08 A3039 RMK AO2
KSIK 171335Z AUTO 00000KT 10SM CLR 08/07 A3038 RMK AO2
KSIK 171315Z AUTO 00000KT 10SM CLR 07/06 A3037 RMK AO2
KSIK 171255Z AUTO 00000KT 10SM CLR 05/04 A3037 RMK AO2
KSIK 171235Z AUTO 00000KT 10SM CLR 04/03 A3037 RMK AO2
KSIK 171215Z AUTO 00000KT 5SM BR CLR 03/03 A3036 RMK AO2
KSIK 171155Z AUTO 00000KT 10SM CLR 04/03 A3036 RMK AO2
KSIK 171135Z AUTO 00000KT 7SM CLR 04/03 A3036 RMK AO2
KSIK 171115Z AUTO 00000KT 10SM CLR 04/03 A3036 RMK AO2
KSIK 171055Z AUTO 00000KT 10SM CLR 04/03 A3035 RMK AO2
KSIK 171035Z AUTO 00000KT 10SM CLR 04/03 A3034 RMK AO2
KSIK 171015Z AUTO 00000KT 10SM CLR 04/03 A3034 RMK AO2
KSIK 170955Z AUTO 00000KT 10SM CLR 05/03 A3033 RMK AO2
KSIK 170935Z AUTO 00000KT 10SM CLR 04/03 A3032 RMK AO2
KSIK 170915Z AUTO 00000KT 10SM CLR 05/03 A3031 RMK AO2
KSIK 170855Z AUTO 00000KT 10SM CLR 05/04 A3031 RMK AO2
KSIK 170835Z AUTO 00000KT 10SM CLR 05/04 A3032 RMK AO2
KSIK 170815Z AUTO 00000KT 10SM CLR 06/04 A3032 RMK AO2
KSIK 170755Z AUTO 00000KT 10SM CLR 05/04 A3032 RMK AO2
KSIK 170735Z AUTO 00000KT 10SM CLR 06/05 A3032 RMK AO2
KSIK 170715Z AUTO 00000KT 10SM CLR 06/05 A3032 RMK AO2
KSIK 170655Z AUTO 00000KT 10SM CLR 06/05 A3032 RMK AO2
KSIK 170635Z AUTO 00000KT 10SM CLR 06/05 A3033 RMK AO2
KSIK 170615Z AUTO 00000KT 10SM CLR 06/04 A3033 RMK AO2
KSIK 170555Z AUTO 00000KT 10SM CLR 06/04 A3032 RMK AO2
KSIK 170535Z AUTO 00000KT 10SM CLR 06/05 A3033 RMK AO2
KSIK 170515Z AUTO 00000KT 10SM CLR 06/05 A3033 RMK AO2
KSIK 170455Z AUTO 00000KT 10SM CLR 07/05 A3032 RMK AO2
KSIK 170435Z AUTO 00000KT 10SM CLR 07/05 A3033 RMK AO2
KSIK 170415Z AUTO 00000KT 10SM CLR 07/05 A3032 RMK AO2
KSIK 170355Z AUTO 00000KT 10SM CLR 07/05 A3033 RMK AO2
KSIK 170335Z AUTO 08003KT 7SM CLR 08/06 A3033 RMK AO2
KSIK 170315Z AUTO 00000KT 10SM CLR 08/06 A3034 RMK AO2
KSIK 170255Z AUTO 00000KT 10SM CLR 08/05 A3034 RMK AO2
KSIK 170235Z AUTO 00000KT 10SM CLR 09/06 A3033 RMK AO2
KSIK 170215Z AUTO 00000KT 10SM CLR 09/06 A3032 RMK AO2
KSIK 170155Z AUTO 00000KT 10SM CLR 09/06 A3032 RMK AO2
KSIK 170135Z AUTO 00000KT 10SM CLR 10/06 A3032 RMK AO2
KSIK 170115Z AUTO 00000KT 10SM CLR 10/06 A3032 RMK AO2
KSIK 170055Z AUTO 00000KT 10SM CLR 11/05 A3032 RMK AO2
KSIK 170035Z AUTO 00000KT 10SM CLR 12/05 A3032 RMK AO2
KSIK 170015Z AUTO 00000KT 10SM CLR 12/05 A3031 RMK AO2
KSIK 162355Z AUTO 00000KT 10SM CLR 13/05 A3031 RMK AO2
KSIK 162335Z AUTO 00000KT 10SM CLR 15/03 A3031 RMK AO2
KSIK 162315Z AUTO 02003KT 10SM CLR 16/03 A3030 RMK AO2
KSIK 162255Z AUTO 02006KT 10SM CLR 17/03 A3030 RMK AO2
KSIK 162235Z AUTO 01007KT 10SM CLR 18/02 A3031 RMK AO2
KSIK 162215Z AUTO 01006KT 10SM CLR 18/03 A3031 RMK AO2
KSIK 162155Z AUTO 01006KT 10SM CLR 19/02 A3031 RMK AO2
KSIK 162135Z AUTO 34008KT 10SM CLR 19/02 A3030 RMK AO2
KSIK 162115Z AUTO 02007KT 10SM CLR 19/02 A3031 RMK AO2
KSIK 162055Z AUTO 36007KT 332V032 10SM CLR 20/03 A3031 RMK AO2
KSIK 162035Z AUTO 36008G14KT 10SM CLR 19/02 A3031 RMK AO2
KSIK 162015Z AUTO 04007KT 10SM CLR 19/03 A3032 RMK AO2
KSIK 161955Z AUTO 35007KT 10SM CLR 19/03 A3032 RMK AO2
KSIK 161935Z AUTO 02008KT 10SM CLR 19/03 A3033 RMK AO2